sensor_id;sensor_type;location;lat;lon;timestamp;pressure;altitude;pressure_sealevel;temperature;humidity
45731;BME280;31440;48.584;13.460;2023-07-13T00:03:01;96738.38;;;19.58;100.00
45731;BME280;31440;48.584;13.460;2023-07-13T00:06:07;96751.22;;;19.50;100.00
45731;BME280;31440;48.584;13.460;2023-07-13T00:09:15;96763.72;;;19.23;100.00
45731;BME280;31440;48.584;13.460;2023-07-13T00:12:25;96770.22;;;19.17;100.00
45731;BME280;31440;48.584;13.460;2023-07-13T00:15:30;96777.53;;;19.01;100.00
45731;BME280;31440;48.584;13.460;2023-07-13T00:18:36;96767.53;;;18.81;100.00
45731;BME280;31440;48.584;13.460;2023-07-13T00:21:41;96771.41;;;19.00;100.00
45731;BME280;31440;48.584;13.460;2023-07-13T00:24:46;96753.84;;;19.01;100.00
45731;BME280;31440;48.584;13.460;2023-07-13T00:27:50;96735.44;;;19.01;100.00
45731;BME280;31440;48.584;13.460;2023-07-13T00:30:55;96736.91;;;18.92;100.00
45731;BME280;31440;48.584;13.460;2023-07-13T00:34:01;96744.56;;;19.08;100.00
45731;BME280;31440;48.584;13.460;2023-07-13T00:37:06;96757.34;;;19.51;100.00
45731;BME280;31440;48.584;13.460;2023-07-13T00:40:12;96771.44;;;19.50;100.00
45731;BME280;31440;48.584;13.460;2023-07-13T00:43:17;96754.44;;;19.66;100.00
45731;BME280;31440;48.584;13.460;2023-07-13T00:46:24;96751.78;;;19.42;100.00
45731;BME280;31440;48.584;13.460;2023-07-13T00:49:29;96737.41;;;19.10;100.00
45731;BME280;31440;48.584;13.460;2023-07-13T00:52:35;96729.56;;;19.34;100.00
45731;BME280;31440;48.584;13.460;2023-07-13T00:55:41;96731.13;;;19.00;100.00
45731;BME280;31440;48.584;13.460;2023-07-13T00:58:45;96739.41;;;19.19;100.00
45731;BME280;31440;48.584;13.460;2023-07-13T01:01:50;96737.50;;;19.21;100.00
45731;BME280;31440;48.584;13.460;2023-07-13T01:04:55;96740.44;;;19.17;100.00
45731;BME280;31440;48.584;13.460;2023-07-13T01:08:00;96740.63;;;19.26;100.00
45731;BME280;31440;48.584;13.460;2023-07-13T01:11:05;96748.41;;;18.66;100.00
45731;BME280;31440;48.584;13.460;2023-07-13T01:14:12;96750.75;;;19.20;100.00
45731;BME280;31440;48.584;13.460;2023-07-13T01:17:19;96750.00;;;19.30;100.00
45731;BME280;31440;48.584;13.460;2023-07-13T01:20:23;96751.72;;;19.19;100.00
45731;BME280;31440;48.584;13.460;2023-07-13T01:23:29;96759.94;;;19.01;100.00
45731;BME280;31440;48.584;13.460;2023-07-13T01:26:34;96756.97;;;19.19;100.00
45731;BME280;31440;48.584;13.460;2023-07-13T01:29:39;96749.59;;;19.11;100.00
45731;BME280;31440;48.584;13.460;2023-07-13T01:32:46;96742.13;;;19.18;100.00
45731;BME280;31440;48.584;13.460;2023-07-13T01:35:51;96756.31;;;19.28;100.00
45731;BME280;31440;48.584;13.460;2023-07-13T01:38:55;96744.28;;;19.49;100.00
45731;BME280;31440;48.584;13.460;2023-07-13T01:42:00;96742.91;;;19.43;100.00
45731;BME280;31440;48.584;13.460;2023-07-13T01:45:05;96745.66;;;19.55;100.00
45731;BME280;31440;48.584;13.460;2023-07-13T01:48:10;96746.19;;;19.34;100.00
45731;BME280;31440;48.584;13.460;2023-07-13T01:51:15;96739.06;;;19.36;100.00
45731;BME280;31440;48.584;13.460;2023-07-13T01:54:22;96735.22;;;19.53;100.00
45731;BME280;31440;48.584;13.460;2023-07-13T01:57:27;96746.41;;;19.44;100.00
45731;BME280;31440;48.584;13.460;2023-07-13T02:00:32;96745.66;;;19.55;100.00
45731;BME280;31440;48.584;13.460;2023-07-13T02:03:39;96741.16;;;19.68;100.00
45731;BME280;31440;48.584;13.460;2023-07-13T02:06:43;96738.50;;;19.44;100.00
45731;BME280;31440;48.584;13.460;2023-07-13T02:09:48;96748.28;;;19.55;100.00
45731;BME280;31440;48.584;13.460;2023-07-13T02:12:52;96743.53;;;19.60;100.00
45731;BME280;31440;48.584;13.460;2023-07-13T02:15:57;96734.16;;;19.56;100.00
45731;BME280;31440;48.584;13.460;2023-07-13T02:19:02;96733.22;;;19.44;100.00
45731;BME280;31440;48.584;13.460;2023-07-13T02:22:06;96722.31;;;19.37;100.00
45731;BME280;31440;48.584;13.460;2023-07-13T02:25:11;96723.06;;;19.39;100.00
45731;BME280;31440;48.584;13.460;2023-07-13T02:28:15;96717.41;;;19.20;100.00
45731;BME280;31440;48.584;13.460;2023-07-13T02:31:20;96733.19;;;19.20;100.00
45731;BME280;31440;48.584;13.460;2023-07-13T02:34:25;96724.59;;;19.55;100.00
45731;BME280;31440;48.584;13.460;2023-07-13T02:37:29;96728.53;;;19.60;100.00
45731;BME280;31440;48.584;13.460;2023-07-13T02:40:34;96726.44;;;19.41;100.00
45731;BME280;31440;48.584;13.460;2023-07-13T02:43:39;96728.50;;;19.49;100.00
45731;BME280;31440;48.584;13.460;2023-07-13T02:46:46;96724.31;;;19.70;100.00
45731;BME280;31440;48.584;13.460;2023-07-13T02:49:50;96730.69;;;19.55;100.00
45731;BME280;31440;48.584;13.460;2023-07-13T02:52:55;96725.75;;;19.74;100.00
45731;BME280;31440;48.584;13.460;2023-07-13T02:55:59;96733.09;;;19.22;100.00
45731;BME280;31440;48.584;13.460;2023-07-13T02:59:04;96721.63;;;19.10;100.00
45731;BME280;31440;48.584;13.460;2023-07-13T03:02:08;96729.38;;;19.37;100.00
45731;BME280;31440;48.584;13.460;2023-07-13T03:05:14;96725.84;;;19.00;100.00
45731;BME280;31440;48.584;13.460;2023-07-13T03:08:20;96726.03;;;19.22;100.00
45731;BME280;31440;48.584;13.460;2023-07-13T03:11:26;96721.34;;;19.26;100.00
45731;BME280;31440;48.584;13.460;2023-07-13T03:14:39;96717.53;;;19.55;100.00
45731;BME280;31440;48.584;13.460;2023-07-13T03:17:45;96714.22;;;19.40;100.00
45731;BME280;31440;48.584;13.460;2023-07-13T03:20:50;96714.31;;;19.63;100.00
45731;BME280;31440;48.584;13.460;2023-07-13T03:23:55;96709.47;;;19.33;100.00
45731;BME280;31440;48.584;13.460;2023-07-13T03:27:03;96716.97;;;19.14;100.00
45731;BME280;31440;48.584;13.460;2023-07-13T03:30:10;96717.22;;;18.98;100.00
45731;BME280;31440;48.584;13.460;2023-07-13T03:33:14;96723.25;;;18.87;100.00
45731;BME280;31440;48.584;13.460;2023-07-13T03:36:20;96725.66;;;19.03;100.00
45731;BME280;31440;48.584;13.460;2023-07-13T03:39:26;96728.09;;;19.30;100.00
45731;BME280;31440;48.584;13.460;2023-07-13T03:42:33;96732.53;;;19.42;100.00
45731;BME280;31440;48.584;13.460;2023-07-13T03:45:38;96739.81;;;19.62;100.00
45731;BME280;31440;48.584;13.460;2023-07-13T03:48:43;96745.78;;;19.77;100.00
45731;BME280;31440;48.584;13.460;2023-07-13T03:51:49;96751.06;;;19.64;100.00
45731;BME280;31440;48.584;13.460;2023-07-13T03:54:57;96745.91;;;19.39;100.00
45731;BME280;31440;48.584;13.460;2023-07-13T04:01:25;96749.41;;;19.87;100.00
45731;BME280;31440;48.584;13.460;2023-07-13T04:04:30;96750.44;;;19.24;100.00
45731;BME280;31440;48.584;13.460;2023-07-13T04:07:35;96745.09;;;19.13;100.00
45731;BME280;31440;48.584;13.460;2023-07-13T04:10:39;96758.59;;;18.83;100.00
45731;BME280;31440;48.584;13.460;2023-07-13T04:13:44;96753.44;;;18.69;100.00
45731;BME280;31440;48.584;13.460;2023-07-13T04:16:49;96754.19;;;18.84;100.00
45731;BME280;31440;48.584;13.460;2023-07-13T04:19:53;96745.53;;;18.94;100.00
45731;BME280;31440;48.584;13.460;2023-07-13T04:22:57;96738.88;;;19.14;100.00
45731;BME280;31440;48.584;13.460;2023-07-13T04:26:02;96729.44;;;18.99;100.00
45731;BME280;31440;48.584;13.460;2023-07-13T04:29:07;96742.16;;;19.05;100.00
45731;BME280;31440;48.584;13.460;2023-07-13T04:32:11;96740.44;;;19.17;100.00
45731;BME280;31440;48.584;13.460;2023-07-13T04:35:16;96737.09;;;18.89;100.00
45731;BME280;31440;48.584;13.460;2023-07-13T04:38:21;96744.56;;;19.08;100.00
45731;BME280;31440;48.584;13.460;2023-07-13T04:41:26;96753.72;;;18.90;100.00
45731;BME280;31440;48.584;13.460;2023-07-13T04:44:32;96745.47;;;19.32;100.00
45731;BME280;31440;48.584;13.460;2023-07-13T04:47:36;96749.91;;;19.19;100.00
45731;BME280;31440;48.584;13.460;2023-07-13T04:50:41;96753.00;;;18.62;100.00
45731;BME280;31440;48.584;13.460;2023-07-13T04:53:45;96750.72;;;18.83;100.00
45731;BME280;31440;48.584;13.460;2023-07-13T04:56:50;96756.88;;;18.95;100.00
45731;BME280;31440;48.584;13.460;2023-07-13T04:59:54;96759.94;;;18.89;100.00
45731;BME280;31440;48.584;13.460;2023-07-13T05:02:59;96760.47;;;18.94;100.00
45731;BME280;31440;48.584;13.460;2023-07-13T05:06:05;96762.50;;;18.65;100.00
45731;BME280;31440;48.584;13.460;2023-07-13T05:09:10;96758.16;;;19.02;100.00
45731;BME280;31440;48.584;13.460;2023-07-13T05:12:14;96763.53;;;19.00;100.00
45731;BME280;31440;48.584;13.460;2023-07-13T05:15:20;96767.63;;;18.92;100.00
45731;BME280;31440;48.584;13.460;2023-07-13T05:18:25;96764.47;;;18.61;100.00
45731;BME280;31440;48.584;13.460;2023-07-13T05:21:30;96771.94;;;18.93;100.00
45731;BME280;31440;48.584;13.460;2023-07-13T05:24:34;96763.72;;;19.10;100.00
45731;BME280;31440;48.584;13.460;2023-07-13T05:27:39;96771.09;;;18.80;100.00
45731;BME280;31440;48.584;13.460;2023-07-13T05:30:47;96777.41;;;19.02;100.00
45731;BME280;31440;48.584;13.460;2023-07-13T05:33:52;96782.47;;;19.05;100.00
45731;BME280;31440;48.584;13.460;2023-07-13T05:36:56;96772.44;;;19.23;100.00
45731;BME280;31440;48.584;13.460;2023-07-13T05:40:01;96774.75;;;19.15;100.00
45731;BME280;31440;48.584;13.460;2023-07-13T05:43:05;96773.50;;;19.21;100.00
45731;BME280;31440;48.584;13.460;2023-07-13T05:46:10;96767.19;;;19.23;100.00
45731;BME280;31440;48.584;13.460;2023-07-13T05:49:14;96774.44;;;19.20;100.00
45731;BME280;31440;48.584;13.460;2023-07-13T05:52:18;96777.53;;;19.01;100.00
45731;BME280;31440;48.584;13.460;2023-07-13T05:55:23;96786.09;;;19.28;100.00
45731;BME280;31440;48.584;13.460;2023-07-13T05:58:28;96795.78;;;19.53;100.00
45731;BME280;31440;48.584;13.460;2023-07-13T06:01:32;96794.75;;;18.92;100.00
45731;BME280;31440;48.584;13.460;2023-07-13T06:04:37;96792.31;;;19.27;100.00
45731;BME280;31440;48.584;13.460;2023-07-13T06:07:41;96795.16;;;19.11;100.00
45731;BME280;31440;48.584;13.460;2023-07-13T06:10:46;96798.63;;;19.50;100.00
45731;BME280;31440;48.584;13.460;2023-07-13T06:13:50;96793.28;;;19.39;100.00
45731;BME280;31440;48.584;13.460;2023-07-13T06:16:55;96804.31;;;19.80;100.00
45731;BME280;31440;48.584;13.460;2023-07-13T06:20:00;96806.00;;;19.82;100.00
45731;BME280;31440;48.584;13.460;2023-07-13T06:23:04;96806.19;;;19.91;100.00
45731;BME280;31440;48.584;13.460;2023-07-13T06:26:10;96813.59;;;20.10;100.00
45731;BME280;31440;48.584;13.460;2023-07-13T06:29:14;96819.72;;;19.98;100.00
45731;BME280;31440;48.584;13.460;2023-07-13T06:32:19;96813.88;;;19.94;100.00
45731;BME280;31440;48.584;13.460;2023-07-13T06:35:24;96814.91;;;20.15;100.00
45731;BME280;31440;48.584;13.460;2023-07-13T06:38:28;96820.19;;;20.39;100.00
45731;BME280;31440;48.584;13.460;2023-07-13T06:41:33;96813.75;;;19.96;100.00
45731;BME280;31440;48.584;13.460;2023-07-13T06:44:39;96822.81;;;19.92;100.00
45731;BME280;31440;48.584;13.460;2023-07-13T06:47:44;96813.47;;;20.11;100.00
45731;BME280;31440;48.584;13.460;2023-07-13T06:50:49;96825.47;;;20.39;100.00
45731;BME280;31440;48.584;13.460;2023-07-13T06:53:55;96827.59;;;20.69;100.00
45731;BME280;31440;48.584;13.460;2023-07-13T06:57:00;96828.47;;;19.62;100.00
45731;BME280;31440;48.584;13.460;2023-07-13T07:00:05;96827.22;;;20.63;100.00
45731;BME280;31440;48.584;13.460;2023-07-13T07:03:11;96832.50;;;20.63;100.00
45731;BME280;31440;48.584;13.460;2023-07-13T07:06:16;96831.00;;;20.94;100.00
45731;BME280;31440;48.584;13.460;2023-07-13T07:09:21;96845.47;;;20.66;100.00
45731;BME280;31440;48.584;13.460;2023-07-13T07:12:25;96845.88;;;20.83;100.00
45731;BME280;31440;48.584;13.460;2023-07-13T07:15:31;96849.41;;;21.06;100.00
45731;BME280;31440;48.584;13.460;2023-07-13T07:18:35;96843.44;;;21.27;100.00
45731;BME280;31440;48.584;13.460;2023-07-13T07:21:40;96841.47;;;22.07;100.00
45731;BME280;31440;48.584;13.460;2023-07-13T07:24:44;96840.06;;;22.35;100.00
45731;BME280;31440;48.584;13.460;2023-07-13T07:27:49;96828.59;;;22.57;100.00
45731;BME280;31440;48.584;13.460;2023-07-13T07:30:57;96836.19;;;22.39;100.00
45731;BME280;31440;48.584;13.460;2023-07-13T07:34:04;96843.75;;;22.54;100.00
45731;BME280;31440;48.584;13.460;2023-07-13T07:37:09;96837.72;;;22.20;100.00
45731;BME280;31440;48.584;13.460;2023-07-13T07:40:18;96849.56;;;21.72;100.00
45731;BME280;31440;48.584;13.460;2023-07-13T07:43:25;96830.38;;;22.24;100.00
45731;BME280;31440;48.584;13.460;2023-07-13T07:46:30;96838.13;;;22.89;100.00
45731;BME280;31440;48.584;13.460;2023-07-13T07:49:35;96840.59;;;22.17;100.00
45731;BME280;31440;48.584;13.460;2023-07-13T07:52:40;96846.78;;;21.40;100.00
45731;BME280;31440;48.584;13.460;2023-07-13T07:55:45;96860.84;;;21.51;100.00
45731;BME280;31440;48.584;13.460;2023-07-13T07:58:52;96853.53;;;21.89;100.00
45731;BME280;31440;48.584;13.460;2023-07-13T08:02:00;96856.81;;;22.13;100.00
45731;BME280;31440;48.584;13.460;2023-07-13T08:05:09;96853.81;;;22.29;100.00
45731;BME280;31440;48.584;13.460;2023-07-13T08:08:17;96857.63;;;21.81;100.00
45731;BME280;31440;48.584;13.460;2023-07-13T08:11:21;96862.06;;;21.47;100.00
45731;BME280;31440;48.584;13.460;2023-07-13T08:14:29;96880.97;;;21.08;100.00
45731;BME280;31440;48.584;13.460;2023-07-13T08:17:54;96881.75;;;21.66;100.00
45731;BME280;31440;48.584;13.460;2023-07-13T08:21:04;96894.09;;;21.65;100.00
45731;BME280;31440;48.584;13.460;2023-07-13T08:24:09;96882.81;;;21.97;100.00
45731;BME280;31440;48.584;13.460;2023-07-13T08:27:14;96885.56;;;21.62;100.00
45731;BME280;31440;48.584;13.460;2023-07-13T08:30:19;96893.50;;;21.62;100.00
45731;BME280;31440;48.584;13.460;2023-07-13T08:33:23;96900.69;;;21.60;100.00
45731;BME280;31440;48.584;13.460;2023-07-13T08:36:29;96902.19;;;22.40;100.00
45731;BME280;31440;48.584;13.460;2023-07-13T08:39:33;96894.13;;;21.88;100.00
45731;BME280;31440;48.584;13.460;2023-07-13T08:42:42;96905.53;;;22.53;100.00
45731;BME280;31440;48.584;13.460;2023-07-13T08:45:51;96904.91;;;22.93;100.00
45731;BME280;31440;48.584;13.460;2023-07-13T08:49:01;96908.72;;;23.00;100.00
45731;BME280;31440;48.584;13.460;2023-07-13T08:52:50;96905.63;;;22.95;100.00
45731;BME280;31440;48.584;13.460;2023-07-13T08:55:35;96911.88;;;22.08;100.00
45731;BME280;31440;48.584;13.460;2023-07-13T08:58:43;96909.88;;;22.43;100.00
45731;BME280;31440;48.584;13.460;2023-07-13T09:02:04;96916.66;;;22.25;100.00
45731;BME280;31440;48.584;13.460;2023-07-13T09:05:13;96918.66;;;22.44;100.00
45731;BME280;31440;48.584;13.460;2023-07-13T09:11:45;96910.47;;;23.52;100.00
45731;BME280;31440;48.584;13.460;2023-07-13T09:14:52;96921.47;;;23.27;98.71
45731;BME280;31440;48.584;13.460;2023-07-13T09:18:17;96918.72;;;23.89;100.00
45731;BME280;31440;48.584;13.460;2023-07-13T09:21:24;96922.63;;;23.02;98.82
45731;BME280;31440;48.584;13.460;2023-07-13T09:24:38;96925.06;;;23.47;95.10
45731;BME280;31440;48.584;13.460;2023-07-13T09:27:45;96923.47;;;24.36;94.24
45731;BME280;31440;48.584;13.460;2023-07-13T09:33:56;96925.84;;;23.38;85.24
45731;BME280;31440;48.584;13.460;2023-07-13T09:37:00;96930.97;;;22.66;95.79
45731;BME280;31440;48.584;13.460;2023-07-13T09:40:05;96933.94;;;23.04;94.84
45731;BME280;31440;48.584;13.460;2023-07-13T09:43:15;96931.69;;;23.92;94.05
45731;BME280;31440;48.584;13.460;2023-07-13T09:46:21;96933.59;;;24.61;91.87
45731;BME280;31440;48.584;13.460;2023-07-13T09:49:28;96930.16;;;23.90;84.63
45731;BME280;31440;48.584;13.460;2023-07-13T09:52:44;96939.34;;;23.86;83.74
45731;BME280;31440;48.584;13.460;2023-07-13T09:55:48;96938.75;;;24.63;78.24
45731;BME280;31440;48.584;13.460;2023-07-13T09:58:57;96943.00;;;25.13;75.37
45731;BME280;31440;48.584;13.460;2023-07-13T10:02:01;96946.59;;;24.64;73.80
45731;BME280;31440;48.584;13.460;2023-07-13T10:05:10;96940.19;;;24.26;73.24
45731;BME280;31440;48.584;13.460;2023-07-13T10:08:19;96938.03;;;24.01;75.89
45731;BME280;31440;48.584;13.460;2023-07-13T10:11:28;96934.41;;;24.42;79.17
45731;BME280;31440;48.584;13.460;2023-07-13T10:14:34;96940.44;;;24.64;73.18
45731;BME280;31440;48.584;13.460;2023-07-13T10:17:38;96942.28;;;25.02;67.42
45731;BME280;31440;48.584;13.460;2023-07-13T10:20:44;96935.56;;;24.88;57.27
45731;BME280;31440;48.584;13.460;2023-07-13T10:23:50;96943.25;;;25.39;59.85
45731;BME280;31440;48.584;13.460;2023-07-13T10:27:15;96940.47;;;24.73;61.86
45731;BME280;31440;48.584;13.460;2023-07-13T10:33:27;96947.56;;;24.63;56.99
45731;BME280;31440;48.584;13.460;2023-07-13T10:36:38;96946.81;;;24.42;58.81
45731;BME280;31440;48.584;13.460;2023-07-13T10:39:44;96941.22;;;24.45;59.84
45731;BME280;31440;48.584;13.460;2023-07-13T10:42:49;96941.88;;;24.18;61.93
45731;BME280;31440;48.584;13.460;2023-07-13T10:45:56;96935.00;;;25.23;57.37
45731;BME280;31440;48.584;13.460;2023-07-13T10:49:01;96945.72;;;24.04;61.78
45731;BME280;31440;48.584;13.460;2023-07-13T10:52:37;96929.84;;;23.83;69.87
45731;BME280;31440;48.584;13.460;2023-07-13T10:59:05;96944.66;;;24.16;63.17
45731;BME280;31440;48.584;13.460;2023-07-13T11:02:22;96941.16;;;23.85;65.35
45731;BME280;31440;48.584;13.460;2023-07-13T11:05:31;96937.16;;;24.31;62.23
45731;BME280;31440;48.584;13.460;2023-07-13T11:08:55;96941.41;;;23.52;63.97
45731;BME280;31440;48.584;13.460;2023-07-13T11:12:02;96939.72;;;24.02;61.31
45731;BME280;31440;48.584;13.460;2023-07-13T11:15:10;96938.13;;;23.90;60.57
45731;BME280;31440;48.584;13.460;2023-07-13T11:18:20;96947.22;;;23.97;61.80
45731;BME280;31440;48.584;13.460;2023-07-13T11:21:27;96949.16;;;23.65;58.42
45731;BME280;31440;48.584;13.460;2023-07-13T11:24:47;96963.31;;;23.01;58.90
45731;BME280;31440;48.584;13.460;2023-07-13T11:31:15;96963.50;;;22.34;56.71
45731;BME280;31440;48.584;13.460;2023-07-13T11:34:25;96958.56;;;22.84;57.50
45731;BME280;31440;48.584;13.460;2023-07-13T11:37:31;96960.81;;;23.32;58.51
45731;BME280;31440;48.584;13.460;2023-07-13T11:40:36;96963.47;;;23.20;55.18
45731;BME280;31440;48.584;13.460;2023-07-13T11:43:41;96960.19;;;22.75;55.93
45731;BME280;31440;48.584;13.460;2023-07-13T11:46:47;96966.06;;;23.11;56.44
45731;BME280;31440;48.584;13.460;2023-07-13T11:49:56;96962.91;;;23.17;55.68
45731;BME280;31440;48.584;13.460;2023-07-13T11:53:00;96960.50;;;23.14;53.64
45731;BME280;31440;48.584;13.460;2023-07-13T11:56:05;96959.22;;;23.71;52.82
45731;BME280;31440;48.584;13.460;2023-07-13T11:59:10;96958.78;;;22.92;54.96
45731;BME280;31440;48.584;13.460;2023-07-13T12:02:18;96960.47;;;23.25;55.53
45731;BME280;31440;48.584;13.460;2023-07-13T12:05:28;96959.63;;;23.66;54.97
45731;BME280;31440;48.584;13.460;2023-07-13T12:08:39;96953.97;;;23.29;55.75
45731;BME280;31440;48.584;13.460;2023-07-13T12:11:46;96957.06;;;23.34;54.84
45731;BME280;31440;48.584;13.460;2023-07-13T12:14:51;96942.06;;;23.96;53.83
45731;BME280;31440;48.584;13.460;2023-07-13T12:17:56;96935.13;;;25.21;53.13
45731;BME280;31440;48.584;13.460;2023-07-13T12:21:01;96932.50;;;25.31;50.01
45731;BME280;31440;48.584;13.460;2023-07-13T12:24:13;96924.81;;;25.09;49.88
45731;BME280;31440;48.584;13.460;2023-07-13T12:27:20;96926.72;;;25.92;47.74
45731;BME280;31440;48.584;13.460;2023-07-13T12:33:31;96906.81;;;27.40;44.22
45731;BME280;31440;48.584;13.460;2023-07-13T12:36:38;96905.00;;;26.51;45.00
45731;BME280;31440;48.584;13.460;2023-07-13T12:39:46;96900.13;;;27.87;42.59
45731;BME280;31440;48.584;13.460;2023-07-13T12:42:51;96898.41;;;28.62;42.61
45731;BME280;31440;48.584;13.460;2023-07-13T12:46:01;96900.47;;;28.34;40.81
45731;BME280;31440;48.584;13.460;2023-07-13T12:49:07;96889.53;;;28.46;40.54
45731;BME280;31440;48.584;13.460;2023-07-13T12:52:23;96892.25;;;28.94;41.58
45731;BME280;31440;48.584;13.460;2023-07-13T12:55:40;96888.09;;;29.32;39.52
45731;BME280;31440;48.584;13.460;2023-07-13T12:58:46;96893.16;;;27.68;41.22
45731;BME280;31440;48.584;13.460;2023-07-13T13:01:53;96886.41;;;28.24;38.41
45731;BME280;31440;48.584;13.460;2023-07-13T13:04:58;96878.41;;;29.23;39.78
45731;BME280;31440;48.584;13.460;2023-07-13T13:08:02;96884.81;;;27.63;39.76
45731;BME280;31440;48.584;13.460;2023-07-13T13:11:07;96873.72;;;28.10;37.54
45731;BME280;31440;48.584;13.460;2023-07-13T13:14:11;96875.63;;;28.34;36.90
45731;BME280;31440;48.584;13.460;2023-07-13T13:17:19;96867.84;;;28.07;37.17
45731;BME280;31440;48.584;13.460;2023-07-13T13:20:25;96869.25;;;29.10;36.16
45731;BME280;31440;48.584;13.460;2023-07-13T13:23:30;96868.38;;;28.85;36.52
45731;BME280;31440;48.584;13.460;2023-07-13T13:26:34;96862.44;;;28.32;38.44
45731;BME280;31440;48.584;13.460;2023-07-13T13:29:39;96850.75;;;29.80;36.15
45731;BME280;31440;48.584;13.460;2023-07-13T13:32:45;96849.78;;;30.03;37.46
45731;BME280;31440;48.584;13.460;2023-07-13T13:35:49;96856.19;;;29.39;37.32
45731;BME280;31440;48.584;13.460;2023-07-13T13:38:54;96855.16;;;28.51;37.98
45731;BME280;31440;48.584;13.460;2023-07-13T13:41:58;96856.97;;;29.48;36.23
45731;BME280;31440;48.584;13.460;2023-07-13T13:45:03;96863.66;;;28.04;38.03
45731;BME280;31440;48.584;13.460;2023-07-13T13:48:15;96862.13;;;28.35;37.85
45731;BME280;31440;48.584;13.460;2023-07-13T13:51:20;96854.53;;;30.32;37.45
45731;BME280;31440;48.584;13.460;2023-07-13T13:54:25;96845.47;;;29.39;38.01
45731;BME280;31440;48.584;13.460;2023-07-13T13:57:30;96848.97;;;29.56;37.90
45731;BME280;31440;48.584;13.460;2023-07-13T14:00:36;96836.91;;;29.52;36.37
45731;BME280;31440;48.584;13.460;2023-07-13T14:03:45;96856.22;;;28.98;38.78
45731;BME280;31440;48.584;13.460;2023-07-13T14:06:49;96848.88;;;29.09;37.73
45731;BME280;31440;48.584;13.460;2023-07-13T14:09:55;96842.25;;;30.07;36.26
45731;BME280;31440;48.584;13.460;2023-07-13T14:13:00;96841.28;;;30.62;36.42
45731;BME280;31440;48.584;13.460;2023-07-13T14:16:09;96843.72;;;29.79;38.00
45731;BME280;31440;48.584;13.460;2023-07-13T14:19:15;96856.81;;;28.44;37.90
45731;BME280;31440;48.584;13.460;2023-07-13T14:22:20;96846.97;;;27.94;39.31
45731;BME280;31440;48.584;13.460;2023-07-13T14:25:25;96843.34;;;28.69;39.31
45731;BME280;31440;48.584;13.460;2023-07-13T14:28:29;96843.72;;;28.24;39.15
45731;BME280;31440;48.584;13.460;2023-07-13T14:31:34;96847.81;;;28.45;39.15
45731;BME280;31440;48.584;13.460;2023-07-13T14:34:39;96852.50;;;28.59;38.71
45731;BME280;31440;48.584;13.460;2023-07-13T14:37:46;96858.72;;;28.17;39.46
45731;BME280;31440;48.584;13.460;2023-07-13T14:40:51;96839.97;;;28.59;38.54
45731;BME280;31440;48.584;13.460;2023-07-13T14:43:55;96841.09;;;29.46;38.76
45731;BME280;31440;48.584;13.460;2023-07-13T14:47:01;96852.28;;;29.66;37.15
45731;BME280;31440;48.584;13.460;2023-07-13T14:50:11;96846.75;;;31.14;34.29
45731;BME280;31440;48.584;13.460;2023-07-13T14:53:17;96848.38;;;31.00;34.85
45731;BME280;31440;48.584;13.460;2023-07-13T14:56:21;96853.56;;;28.24;36.99
45731;BME280;31440;48.584;13.460;2023-07-13T14:59:26;96852.38;;;27.42;38.51
45731;BME280;31440;48.584;13.460;2023-07-13T15:02:32;96849.34;;;26.93;39.67
45731;BME280;31440;48.584;13.460;2023-07-13T15:05:38;96846.81;;;27.36;39.34
45731;BME280;31440;48.584;13.460;2023-07-13T15:08:44;96838.06;;;27.51;39.26
45731;BME280;31440;48.584;13.460;2023-07-13T15:11:48;96836.19;;;27.18;38.62
45731;BME280;31440;48.584;13.460;2023-07-13T15:14:53;96833.66;;;27.34;39.49
45731;BME280;31440;48.584;13.460;2023-07-13T15:17:59;96846.09;;;27.85;38.40
45731;BME280;31440;48.584;13.460;2023-07-13T15:21:07;96839.47;;;28.48;37.97
45731;BME280;31440;48.584;13.460;2023-07-13T15:24:13;96845.63;;;28.40;37.38
45731;BME280;31440;48.584;13.460;2023-07-13T15:27:17;96844.00;;;27.71;37.72
45731;BME280;31440;48.584;13.460;2023-07-13T15:30:22;96854.34;;;26.96;39.44
45731;BME280;31440;48.584;13.460;2023-07-13T15:33:28;96849.06;;;27.22;39.51
45731;BME280;31440;48.584;13.460;2023-07-13T15:36:33;96852.22;;;27.78;38.71
45731;BME280;31440;48.584;13.460;2023-07-13T15:39:38;96857.28;;;28.39;37.21
45731;BME280;31440;48.584;13.460;2023-07-13T15:42:43;96856.50;;;28.55;34.82
45731;BME280;31440;48.584;13.460;2023-07-13T15:45:48;96845.50;;;28.82;34.99
45731;BME280;31440;48.584;13.460;2023-07-13T15:48:54;96843.75;;;29.70;35.37
45731;BME280;31440;48.584;13.460;2023-07-13T15:52:01;96842.66;;;28.84;35.29
45731;BME280;31440;48.584;13.460;2023-07-13T15:55:07;96856.44;;;28.30;36.67
45731;BME280;31440;48.584;13.460;2023-07-13T15:58:13;96854.13;;;27.59;37.92
45731;BME280;31440;48.584;13.460;2023-07-13T16:01:19;96868.41;;;27.24;39.13
45731;BME280;31440;48.584;13.460;2023-07-13T16:04:24;96856.00;;;26.97;36.37
45731;BME280;31440;48.584;13.460;2023-07-13T16:07:29;96865.78;;;27.58;36.70
45731;BME280;31440;48.584;13.460;2023-07-13T16:10:35;96859.97;;;28.39;35.88
45731;BME280;31440;48.584;13.460;2023-07-13T16:13:41;96861.88;;;28.13;35.73
45731;BME280;31440;48.584;13.460;2023-07-13T16:16:45;96855.50;;;27.97;34.73
45731;BME280;31440;48.584;13.460;2023-07-13T16:19:50;96857.97;;;28.41;35.20
45731;BME280;31440;48.584;13.460;2023-07-13T16:22:55;96859.19;;;26.75;35.79
45731;BME280;31440;48.584;13.460;2023-07-13T16:26:00;96872.66;;;27.17;35.64
45731;BME280;31440;48.584;13.460;2023-07-13T16:29:15;96884.38;;;26.36;37.56
45731;BME280;31440;48.584;13.460;2023-07-13T16:32:20;96874.91;;;26.86;37.06